Time;durP1;ratioP1;P1;durP2;ratioP2;P2;SDS_P1;SDS_P2;PMS_P1;PMS_P2;Temp;Humidity;BMP_temperature;BMP_pressure;BME280_temperature;BME280_humidity;BME280_pressure;Samples;Min_cycle;Max_cycle;Signal;HPM_P1;HPM_P2
2022/09/03 00:02:05;;;;;;;;;;;;;;;;;;5049943;28;1316;-75
2022/09/03 00:04:39;;;;;;;;;;;;;;;;;;5052159;28;1963;-76
2022/09/03 00:07:16;;;;;;;;;;;;;;;;;;5048029;28;1401;-76
2022/09/03 00:09:45;;;;;;;;;;;;;;;;;;5047247;28;1372;-78
2022/09/03 00:12:17;;;;;;;;;;;;;;;;;;5048498;28;1388;-77
2022/09/03 00:14:48;;;;;;;;;;;;;;;;;;5053293;28;1330;-77
2022/09/03 00:17:15;;;;;;;;;;;;;;;;;;5047947;28;1300;-77
2022/09/03 00:19:44;;;;;;;;;;;;;;;;;;5053382;28;1262;-77
2022/09/03 00:22:15;;;;;;;;;;;;;;;;;;5046307;28;1206;-78
2022/09/03 00:24:41;;;;;;;;;;;;;;;;;;5048215;28;1963;-78
2022/09/03 00:27:10;;;;;;;;;;;;;;;;;;5051956;28;1371;-78
2022/09/03 00:29:46;;;;;;;;;;;;;;;;;;5050107;28;1816;-78
2022/09/03 00:32:15;;;;;;;;;;;;;;;;;;5046521;28;1547;-78
2022/09/03 00:34:44;;;;;;;;;;;;;;;;;;5056138;28;1176;-79
2022/09/03 00:37:10;;;;;;;;;;;;;;;;;;5050049;28;1251;-79
2022/09/03 00:39:36;;;;;;;;;;;;;;;;;;5051213;28;1408;-78
2022/09/03 00:42:10;;;;;;;;;;;;;;;;;;5041509;28;1317;-79
2022/09/03 00:44:55;;;;;;;;;;;;;;;;;;5050794;28;1906;-79
2022/09/03 00:47:28;;;;;;;;;;;;;;;;;;5042650;28;1311;-77
2022/09/03 00:50:12;;;;;;;;;;;;;;;;;;5057714;28;1084;-77
2022/09/03 00:52:38;;;;;;;;;;;;;;;;;;5044340;28;1602;-76
2022/09/03 00:55:26;;;;;;;;;;;;;;;;;;5046044;28;1741;-76
2022/09/03 00:57:58;;;;;;;;;;;;;;;;;;5042311;28;1297;-73
2022/09/03 01:00:23;;;;;;;;;;;;;;;;;;5049703;28;1345;-73
2022/09/03 01:03:05;;;;;;;;;;;;;;;;;;5052279;28;1342;-73
2022/09/03 01:05:53;;;;;;;;;;;;;;;;;;5050627;28;1965;-75
2022/09/03 01:08:40;;;;;;;;;;;;;;;;;;5048184;28;2217;-75
2022/09/03 01:11:46;;;;;;;;;;;;;;;;;;5045972;28;1617;-75
2022/09/03 01:14:37;;;;;;;;;;;;;;;;;;4976350;28;1442;-75
2022/09/03 01:17:02;;;;;;;;;;;;;;;;;;4963052;28;1495;-73
2022/09/03 01:19:39;;;;;;;;;;;;;;;;;;5021596;28;1276;-72
2022/09/03 01:22:20;;;;;;;;;;;;;;;;;;5046838;28;1261;-73
2022/09/03 01:24:52;;;;;;;;;;;;;;;;;;5045260;28;1886;-72
2022/09/03 01:27:17;;;;;;;;;;;;;;;;;;5048231;28;1597;-72
2022/09/03 01:29:42;;;;;;;;;;;;;;;;;;5053626;28;1282;-73
2022/09/03 01:32:28;;;;;;;;;;;;;;;;;;5046243;28;1302;-73
2022/09/03 01:35:01;;;;;;;;;;;;;;;;;;5050627;28;1172;-73
2022/09/03 01:37:32;;;;;;;;;;;;;;;;;;5046439;28;1349;-73
2022/09/03 01:40:05;;;;;;;;;;;;;;;;;;5051348;28;1244;-76
2022/09/03 01:42:47;;;;;;;;;;;;;;;;;;5048026;28;1458;-76
2022/09/03 01:45:18;;;;;;;;;;;;;;;;;;5039116;28;1902;-76
2022/09/03 01:47:50;;;;;;;;;;;;;;;;;;5049861;28;1155;-76
2022/09/03 01:50:32;;;;;;;;;;;;;;;;;;5051463;28;1215;-77
2022/09/03 01:53:02;;;;;;;;;;;;;;;;;;5042513;28;1527;-77
2022/09/03 01:55:32;;;;;;;;;;;;;;;;;;5041238;28;1524;-77
2022/09/03 01:58:10;;;;;;;;;;;;;;;;;;5051637;28;1246;-77
2022/09/03 02:00:38;;;;;;;;;;;;;;;;;;5049052;28;1272;-77
2022/09/03 02:03:04;;;;;;;;;;;;;;;;;;5044166;28;1494;-77
2022/09/03 02:05:30;;;;;;;;;;;;;;;;;;5048266;28;1890;-76
2022/09/03 02:08:05;;;;;;;;;;;;;;;;;;5050565;28;1303;-77
2022/09/03 02:10:32;;;;;;;;;;;;;;;;;;5031545;28;1578;-77
2022/09/03 02:13:06;;;;;;;;;;;;;;;;;;5050382;28;1271;-76
2022/09/03 02:15:33;;;;;;;;;;;;;;;;;;5039063;28;1312;-76
2022/09/03 02:18:01;;;;;;;;;;;;;;;;;;5048187;28;1227;-76
2022/09/03 02:20:27;;;;;;;;;;;;;;;;;;5049502;28;1310;-76
2022/09/03 02:22:53;;;;;;;;;;;;;;;;;;5051223;28;1290;-76
2022/09/03 02:25:19;;;;;;;;;;;;;;;;;;5048136;28;1967;-76
2022/09/03 02:27:47;;;;;;;;;;;;;;;;;;5055842;28;1281;-75
2022/09/03 02:30:12;;;;;;;;;;;;;;;;;;5048648;28;1331;-76
2022/09/03 02:32:37;;;;;;;;;;;;;;;;;;5047295;28;1358;-75
2022/09/03 02:35:03;;;;;;;;;;;;;;;;;;5042987;28;1341;-75
2022/09/03 02:37:28;;;;;;;;;;;;;;;;;;5048216;28;1528;-77
2022/09/03 02:39:53;;;;;;;;;;;;;;;;;;5052654;28;1299;-77
2022/09/03 02:42:19;;;;;;;;;;;;;;;;;;5052320;28;1230;-76
2022/09/03 02:44:50;;;;;;;;;;;;;;;;;;5042840;28;1890;-78
2022/09/03 02:47:19;;;;;;;;;;;;;;;;;;5043166;28;1391;-79
2022/09/03 02:49:45;;;;;;;;;;;;;;;;;;5055628;28;1188;-76
2022/09/03 02:52:11;;;;;;;;;;;;;;;;;;5048824;28;1242;-76
2022/09/03 02:54:38;;;;;;;;;;;;;;;;;;5041897;28;2070;-77
2022/09/03 02:57:13;;;;;;;;;;;;;;;;;;5049315;28;1310;-76
2022/09/03 02:59:40;;;;;;;;;;;;;;;;;;5048812;28;1227;-75
2022/09/03 03:02:05;;;;;;;;;;;;;;;;;;5048426;28;1299;-76
2022/09/03 03:04:31;;;;;;;;;;;;;;;;;;5048803;28;1886;-75
2022/09/03 03:06:56;;;;;;;;;;;;;;;;;;5040801;28;1355;-75
2022/09/03 03:09:21;;;;;;;;;;;;;;;;;;5045173;28;1335;-75
2022/09/03 03:11:48;;;;;;;;;;;;;;;;;;5045552;28;1237;-75
2022/09/03 03:14:14;;;;;;;;;;;;;;;;;;5049433;28;1294;-75
2022/09/03 03:16:39;;;;;;;;;;;;;;;;;;5048400;28;1247;-75
2022/09/03 03:19:04;;;;;;;;;;;;;;;;;;5049284;28;1258;-75
2022/09/03 03:21:29;;;;;;;;;;;;;;;;;;5051152;28;1276;-75
2022/09/03 03:23:54;;;;;;;;;;;;;;;;;;5046313;28;1890;-75
2022/09/03 03:26:21;;;;;;;;;;;;;;;;;;5053849;28;1159;-75
2022/09/03 03:28:49;;;;;;;;;;;;;;;;;;5053134;28;1251;-75
2022/09/03 03:31:16;;;;;;;;;;;;;;;;;;5052450;28;1290;-75
2022/09/03 03:33:41;;;;;;;;;;;;;;;;;;5050716;28;1467;-76
2022/09/03 03:36:08;;;;;;;;;;;;;;;;;;5048078;28;1248;-74
2022/09/03 03:38:34;;;;;;;;;;;;;;;;;;5056471;28;1224;-74
2022/09/03 03:41:05;;;;;;;;;;;;;;;;;;5054085;28;1232;-74
2022/09/03 03:43:30;;;;;;;;;;;;;;;;;;5050168;28;1340;-76
2022/09/03 03:45:57;;;;;;;;;;;;;;;;;;5040696;28;1918;-75
2022/09/03 03:48:22;;;;;;;;;;;;;;;;;;5053709;28;1310;-75
2022/09/03 03:50:47;;;;;;;;;;;;;;;;;;5047906;28;1310;-75
2022/09/03 03:53:13;;;;;;;;;;;;;;;;;;5051202;28;1283;-75
2022/09/03 03:55:38;;;;;;;;;;;;;;;;;;5044917;28;1826;-74
2022/09/03 03:58:03;;;;;;;;;;;;;;;;;;5048868;28;1250;-74
2022/09/03 04:00:28;;;;;;;;;;;;;;;;;;5049489;28;1369;-77
2022/09/03 04:02:54;;;;;;;;;;;;;;;;;;5048936;28;1350;-77
2022/09/03 04:05:19;;;;;;;;;;;;;;;;;;5048354;28;1889;-77
2022/09/03 04:07:44;;;;;;;;;;;;;;;;;;5054268;28;1589;-78
2022/09/03 04:10:09;;;;;;;;;;;;;;;;;;5049430;28;1404;-77
2022/09/03 04:12:34;;;;;;;;;;;;;;;;;;5052794;28;1358;-77
2022/09/03 04:15:00;;;;;;;;;;;;;;;;;;5045431;28;1398;-77
2022/09/03 04:17:26;;;;;;;;;;;;;;;;;;5050243;28;1606;-77
2022/09/03 04:19:51;;;;;;;;;;;;;;;;;;5050955;28;1275;-76
2022/09/03 04:22:17;;;;;;;;;;;;;;;;;;5049239;28;1256;-76
2022/09/03 04:24:43;;;;;;;;;;;;;;;;;;5048876;28;1894;-77
2022/09/03 04:27:08;;;;;;;;;;;;;;;;;;5051459;28;1816;-76
2022/09/03 04:29:33;;;;;;;;;;;;;;;;;;5055715;28;1211;-77
2022/09/03 04:34:43;;;;;;;;;;;;;;;;;;5047441;28;1252;-77
2022/09/03 04:37:08;;;;;;;;;;;;;;;;;;5048274;28;1553;-77
2022/09/03 04:39:33;;;;;;;;;;;;;;;;;;5054622;28;1413;-77
2022/09/03 04:41:59;;;;;;;;;;;;;;;;;;5054922;28;1184;-77
2022/09/03 04:44:24;;;;;;;;;;;;;;;;;;5051281;28;1955;-77
2022/09/03 04:46:49;;;;;;;;;;;;;;;;;;5047637;28;1315;-78
2022/09/03 04:49:14;;;;;;;;;;;;;;;;;;5051168;28;1342;-78
2022/09/03 04:51:39;;;;;;;;;;;;;;;;;;5048088;28;1333;-77
2022/09/03 04:54:05;;;;;;;;;;;;;;;;;;5052173;28;1354;-79
2022/09/03 04:56:31;;;;;;;;;;;;;;;;;;5046993;28;1552;-79
2022/09/03 04:59:00;;;;;;;;;;;;;;;;;;5048505;28;1239;-78
2022/09/03 05:01:27;;;;;;;;;;;;;;;;;;5045528;28;1277;-78
2022/09/03 05:03:52;;;;;;;;;;;;;;;;;;5052233;28;1334;-78
2022/09/03 05:06:18;;;;;;;;;;;;;;;;;;5044973;28;1926;-76
2022/09/03 05:08:47;;;;;;;;;;;;;;;;;;5048551;28;1255;-76
2022/09/03 05:11:12;;;;;;;;;;;;;;;;;;5048177;28;1297;-77
2022/09/03 05:13:37;;;;;;;;;;;;;;;;;;5052740;28;1271;-76
2022/09/03 05:16:04;;;;;;;;;;;;;;;;;;5046782;28;1266;-75
2022/09/03 05:18:29;;;;;;;;;;;;;;;;;;5049543;28;1310;-74
2022/09/03 05:20:59;;;;;;;;;;;;;;;;;;5043063;28;1376;-75
2022/09/03 05:23:25;;;;;;;;;;;;;;;;;;5054118;28;1247;-75
2022/09/03 05:25:57;;;;;;;;;;;;;;;;;;5050561;28;1977;-75
2022/09/03 05:28:23;;;;;;;;;;;;;;;;;;5050753;28;1310;-76
2022/09/03 05:30:57;;;;;;;;;;;;;;;;;;5046640;28;1316;-75
2022/09/03 05:33:22;;;;;;;;;;;;;;;;;;5049909;28;1286;-77
2022/09/03 05:35:47;;;;;;;;;;;;;;;;;;5046773;28;1295;-77
2022/09/03 05:38:14;;;;;;;;;;;;;;;;;;5045613;28;1262;-77
2022/09/03 05:40:40;;;;;;;;;;;;;;;;;;5054237;28;1254;-74
2022/09/03 05:43:05;;;;;;;;;;;;;;;;;;5050949;28;1345;-76
2022/09/03 05:45:31;;;;;;;;;;;;;;;;;;5043027;28;1890;-76
2022/09/03 05:47:58;;;;;;;;;;;;;;;;;;5044510;28;1286;-74
2022/09/03 05:50:24;;;;;;;;;;;;;;;;;;5044838;28;1254;-74
2022/09/03 05:52:49;;;;;;;;;;;;;;;;;;5043105;28;1275;-75
2022/09/03 05:55:14;;;;;;;;;;;;;;;;;;5047049;28;1781;-75
2022/09/03 05:57:40;;;;;;;;;;;;;;;;;;5043405;28;1242;-74
2022/09/03 06:00:05;;;;;;;;;;;;;;;;;;5046368;28;1408;-73
2022/09/03 06:02:31;;;;;;;;;;;;;;;;;;5039693;28;1637;-77
2022/09/03 06:04:56;;;;;;;;;;;;;;;;;;5047462;28;1973;-76
2022/09/03 06:07:21;;;;;;;;;;;;;;;;;;5047543;28;1345;-76
2022/09/03 06:09:46;;;;;;;;;;;;;;;;;;5051810;28;1184;-77
2022/09/03 06:12:12;;;;;;;;;;;;;;;;;;5045129;28;1207;-77
2022/09/03 06:14:37;;;;;;;;;;;;;;;;;;5050070;28;1357;-76
2022/09/03 06:17:02;;;;;;;;;;;;;;;;;;5050281;28;1342;-76
2022/09/03 06:19:27;;;;;;;;;;;;;;;;;;5050506;28;1456;-76
2022/09/03 06:21:52;;;;;;;;;;;;;;;;;;5050919;28;1441;-76
2022/09/03 06:24:19;;;;;;;;;;;;;;;;;;5047193;28;1902;-76
2022/09/03 06:26:45;;;;;;;;;;;;;;;;;;5046148;28;1219;-76
2022/09/03 06:29:10;;;;;;;;;;;;;;;;;;5049829;28;1287;-76
2022/09/03 06:31:36;;;;;;;;;;;;;;;;;;5048070;28;1227;-77
2022/09/03 06:34:01;;;;;;;;;;;;;;;;;;5049002;28;1315;-77
2022/09/03 06:36:27;;;;;;;;;;;;;;;;;;5043547;28;1485;-76
2022/09/03 06:38:53;;;;;;;;;;;;;;;;;;5043882;28;1120;-77
2022/09/03 06:41:24;;;;;;;;;;;;;;;;;;5047331;28;1269;-76
2022/09/03 06:43:50;;;;;;;;;;;;;;;;;;5043512;28;1420;-78
2022/09/03 06:46:17;;;;;;;;;;;;;;;;;;5041033;28;1882;-75
2022/09/03 06:48:42;;;;;;;;;;;;;;;;;;5050277;28;1259;-76
2022/09/03 06:51:15;;;;;;;;;;;;;;;;;;5044674;28;1626;-74
2022/09/03 06:53:41;;;;;;;;;;;;;;;;;;5046173;28;1330;-77
2022/09/03 06:56:08;;;;;;;;;;;;;;;;;;5047714;28;1599;-81
2022/09/03 06:58:36;;;;;;;;;;;;;;;;;;5046117;28;1290;-78
2022/09/03 07:01:12;;;;;;;;;;;;;;;;;;5032406;28;1344;-80
2022/09/03 07:03:38;;;;;;;;;;;;;;;;;;5047043;28;1359;-77
2022/09/03 07:06:05;;;;;;;;;;;;;;;;;;5046505;28;1902;-78
2022/09/03 07:08:31;;;;;;;;;;;;;;;;;;5054599;28;1179;-78
2022/09/03 07:10:58;;;;;;;;;;;;;;;;;;5054137;28;1243;-78
2022/09/03 07:13:24;;;;;;;;;;;;;;;;;;5050627;28;1397;-77
2022/09/03 07:15:56;;;;;;;;;;;;;;;;;;5046554;28;1254;-77
2022/09/03 07:18:21;;;;;;;;;;;;;;;;;;5054145;28;1235;-78
2022/09/03 07:20:47;;;;;;;;;;;;;;;;;;5047807;28;1247;-77
2022/09/03 07:23:15;;;;;;;;;;;;;;;;;;5048577;28;1412;-77
2022/09/03 07:25:40;;;;;;;;;;;;;;;;;;5051963;28;2158;-77
2022/09/03 07:28:05;;;;;;;;;;;;;;;;;;5051172;28;1231;-78
2022/09/03 07:30:31;;;;;;;;;;;;;;;;;;5051938;28;1306;-78
2022/09/03 07:33:00;;;;;;;;;;;;;;;;;;5052743;28;1342;-78
2022/09/03 07:35:25;;;;;;;;;;;;;;;;;;5045226;28;1287;-78
2022/09/03 07:37:51;;;;;;;;;;;;;;;;;;5047273;28;1260;-78
2022/09/03 07:40:18;;;;;;;;;;;;;;;;;;5030160;28;1222;-78
2022/09/03 07:42:43;;;;;;;;;;;;;;;;;;5055344;28;1326;-78
2022/09/03 07:45:10;;;;;;;;;;;;;;;;;;5051790;28;1893;-78
2022/09/03 07:47:36;;;;;;;;;;;;;;;;;;5048598;28;1061;-78
2022/09/03 07:50:02;;;;;;;;;;;;;;;;;;5047138;28;1324;-79
2022/09/03 07:52:28;;;;;;;;;;;;;;;;;;5048635;28;1366;-78
2022/09/03 07:54:53;;;;;;;;;;;;;;;;;;5052966;28;1848;-79
2022/09/03 07:57:18;;;;;;;;;;;;;;;;;;5056789;28;1239;-79
2022/09/03 07:59:43;;;;;;;;;;;;;;;;;;5050344;28;1474;-78
2022/09/03 08:02:08;;;;;;;;;;;;;;;;;;5049045;28;1543;-78
2022/09/03 08:04:34;;;;;;;;;;;;;;;;;;5048643;28;1902;-79
2022/09/03 08:07:00;;;;;;;;;;;;;;;;;;5046706;28;1311;-78
2022/09/03 08:09:25;;;;;;;;;;;;;;;;;;5054711;28;1436;-78
2022/09/03 08:11:50;;;;;;;;;;;;;;;;;;5053725;28;1259;-78
2022/09/03 08:14:16;;;;;;;;;;;;;;;;;;5051896;28;1322;-78
2022/09/03 08:16:43;;;;;;;;;;;;;;;;;;5045245;28;1702;-78
2022/09/03 08:19:10;;;;;;;;;;;;;;;;;;5052569;28;1321;-79
2022/09/03 08:21:35;;;;;;;;;;;;;;;;;;5052670;28;1222;-79
2022/09/03 08:24:03;;;;;;;;;;;;;;;;;;5051557;28;1301;-79
2022/09/03 08:26:32;;;;;;;;;;;;;;;;;;5045129;28;1208;-79
2022/09/03 08:28:58;;;;;;;;;;;;;;;;;;5053268;28;1235;-79
2022/09/03 08:31:25;;;;;;;;;;;;;;;;;;5048687;28;1626;-79
2022/09/03 08:33:51;;;;;;;;;;;;;;;;;;5052980;28;1283;-79
2022/09/03 08:36:17;;;;;;;;;;;;;;;;;;5047234;28;1240;-78
2022/09/03 08:38:44;;;;;;;;;;;;;;;;;;5050887;28;1180;-79
2022/09/03 08:41:16;;;;;;;;;;;;;;;;;;5047875;28;1348;-79
2022/09/03 08:43:41;;;;;;;;;;;;;;;;;;5050780;28;1266;-79
2022/09/03 08:46:08;;;;;;;;;;;;;;;;;;5026295;28;1969;-79
2022/09/03 08:48:33;;;;;;;;;;;;;;;;;;5052073;28;1317;-79
2022/09/03 08:51:00;;;;;;;;;;;;;;;;;;5050872;28;1347;-78
2022/09/03 08:53:28;;;;;;;;;;;;;;;;;;5056259;28;1370;-79
2022/09/03 08:55:59;;;;;;;;;;;;;;;;;;5032096;28;1852;-78
2022/09/03 08:58:25;;;;;;;;;;;;;;;;;;5054494;28;1416;-78
2022/09/03 09:01:02;;;;;;;;;;;;;;;;;;5033836;28;1965;-78
2022/09/03 09:03:42;;;;;;;;;;;;;;;;;;5047297;28;1291;-78
2022/09/03 09:06:17;;;;;;;;;;;;;;;;;;5050623;28;1897;-78
2022/09/03 09:08:47;;;;;;;;;;;;;;;;;;5054694;28;1290;-78
2022/09/03 09:11:31;;;;;;;;;;;;;;;;;;5051847;28;1270;-78
2022/09/03 09:14:02;;;;;;;;;;;;;;;;;;5050433;28;1354;-78
2022/09/03 09:16:35;;;;;;;;;;;;;;;;;;5049226;28;1305;-78
2022/09/03 09:19:08;;;;;;;;;;;;;;;;;;5048033;28;1214;-79
2022/09/03 09:21:40;;;;;;;;;;;;;;;;;;5051770;28;1312;-78
2022/09/03 09:24:10;;;;;;;;;;;;;;;;;;5054147;28;1342;-78
2022/09/03 09:26:36;;;;;;;;;;;;;;;;;;5046750;28;989;-77
2022/09/03 09:29:05;;;;;;;;;;;;;;;;;;5050432;28;1403;-77
2022/09/03 09:31:30;;;;;;;;;;;;;;;;;;5052685;28;1268;-77
2022/09/03 09:34:06;;;;;;;;;;;;;;;;;;5047499;28;1309;-77
2022/09/03 09:36:36;;;;;;;;;;;;;;;;;;5047666;28;1332;-77
2022/09/03 09:39:08;;;;;;;;;;;;;;;;;;5052109;28;1303;-77
2022/09/03 09:41:34;;;;;;;;;;;;;;;;;;5058296;28;1243;-77
2022/09/03 09:44:04;;;;;;;;;;;;;;;;;;5058796;28;1247;-78
2022/09/03 09:46:39;;;;;;;;;;;;;;;;;;5049128;28;1952;-77
2022/09/03 09:49:37;;;;;;;;;;;;;;;;;;5051029;28;1283;-78
2022/09/03 09:52:13;;;;;;;;;;;;;;;;;;5018942;28;1427;-77
2022/09/03 09:54:39;;;;;;;;;;;;;;;;;;5051319;28;1858;-77
2022/09/03 09:57:05;;;;;;;;;;;;;;;;;;5048471;28;1271;-77
2022/09/03 09:59:31;;;;;;;;;;;;;;;;;;5050980;28;1302;-77
2022/09/03 10:02:15;;;;;;;;;;;;;;;;;;5046272;28;1618;-77
2022/09/03 10:04:42;;;;;;;;;;;;;;;;;;5043912;28;1898;-78
2022/09/03 10:07:30;;;;;;;;;;;;;;;;;;5047715;28;1759;-78
2022/09/03 10:09:59;;;;;;;;;;;;;;;;;;5052965;28;1319;-78
2022/09/03 10:12:29;;;;;;;;;;;;;;;;;;5050091;28;1299;-78
2022/09/03 10:14:57;;;;;;;;;;;;;;;;;;5048100;28;1267;-78
2022/09/03 10:17:29;;;;;;;;;;;;;;;;;;5047792;28;1300;-78
2022/09/03 10:20:26;;;;;;;;;;;;;;;;;;5050015;28;1380;-78
2022/09/03 10:22:55;;;;;;;;;;;;;;;;;;5053078;28;1349;-78
2022/09/03 10:25:23;;;;;;;;;;;;;;;;;;5049791;28;1901;-78
2022/09/03 10:27:50;;;;;;;;;;;;;;;;;;5052943;28;1282;-78
2022/09/03 10:30:15;;;;;;;;;;;;;;;;;;5050439;28;1302;-78
2022/09/03 10:32:47;;;;;;;;;;;;;;;;;;5048232;28;1557;-79
2022/09/03 10:35:27;;;;;;;;;;;;;;;;;;5048925;28;1036;-79
2022/09/03 10:38:11;;;;;;;;;;;;;;;;;;5037551;28;1274;-79
2022/09/03 10:40:52;;;;;;;;;;;;;;;;;;5049236;28;1358;-79
2022/09/03 10:43:28;;;;;;;;;;;;;;;;;;5050944;28;1299;-79
2022/09/03 10:46:09;;;;;;;;;;;;;;;;;;5051212;28;1910;-79
2022/09/03 10:48:37;;;;;;;;;;;;;;;;;;5049094;28;1415;-79
2022/09/03 10:51:10;;;;;;;;;;;;;;;;;;5050649;28;1431;-79
2022/09/03 10:53:41;;;;;;;;;;;;;;;;;;5046752;28;1283;-79
2022/09/03 10:56:11;;;;;;;;;;;;;;;;;;5047515;28;2208;-78
2022/09/03 10:59:00;;;;;;;;;;;;;;;;;;5050803;28;1254;-79
2022/09/03 11:01:25;;;;;;;;;;;;;;;;;;5048622;28;1240;-79
2022/09/03 11:04:09;;;;;;;;;;;;;;;;;;5048936;28;1306;-79
2022/09/03 11:06:41;;;;;;;;;;;;;;;;;;5050340;28;1886;-79
2022/09/03 11:09:18;;;;;;;;;;;;;;;;;;5042516;28;1266;-79
2022/09/03 11:11:49;;;;;;;;;;;;;;;;;;5042779;28;1212;-78
2022/09/03 11:14:21;;;;;;;;;;;;;;;;;;5049884;28;1271;-79
2022/09/03 11:16:57;;;;;;;;;;;;;;;;;;5045027;28;1270;-79
2022/09/03 11:19:29;;;;;;;;;;;;;;;;;;5050596;28;1300;-79
2022/09/03 11:21:55;;;;;;;;;;;;;;;;;;5053415;28;1273;-79
2022/09/03 11:24:25;;;;;;;;;;;;;;;;;;5046462;28;1959;-79
2022/09/03 11:27:10;;;;;;;;;;;;;;;;;;5057224;28;1227;-79
2022/09/03 11:29:59;;;;;;;;;;;;;;;;;;5027582;28;1379;-78
2022/09/03 11:32:29;;;;;;;;;;;;;;;;;;5018691;28;1494;-80
2022/09/03 11:34:54;;;;;;;;;;;;;;;;;;5054285;28;1288;-81
2022/09/03 11:37:23;;;;;;;;;;;;;;;;;;5067465;28;1337;-81
2022/09/03 11:40:08;;;;;;;;;;;;;;;;;;5056374;28;1270;-80
2022/09/03 11:42:38;;;;;;;;;;;;;;;;;;5063441;28;1274;-81
2022/09/03 11:45:19;;;;;;;;;;;;;;;;;;5057982;28;1882;-75
2022/09/03 11:47:45;;;;;;;;;;;;;;;;;;5056742;28;1089;-75
2022/09/03 11:50:20;;;;;;;;;;;;;;;;;;5050801;28;1530;-77
2022/09/03 11:52:45;;;;;;;;;;;;;;;;;;5053257;28;1793;-75
2022/09/03 11:55:11;;;;;;;;;;;;;;;;;;5057701;28;2094;-76
2022/09/03 11:57:42;;;;;;;;;;;;;;;;;;5059896;28;1191;-76
2022/09/03 12:00:08;;;;;;;;;;;;;;;;;;5049843;28;1255;-75
2022/09/03 12:02:36;;;;;;;;;;;;;;;;;;5055088;28;1337;-76
2022/09/03 12:05:18;;;;;;;;;;;;;;;;;;5043707;28;1948;-76
2022/09/03 12:07:53;;;;;;;;;;;;;;;;;;5051190;28;1531;-76
2022/09/03 12:10:19;;;;;;;;;;;;;;;;;;5030757;28;1423;-76
2022/09/03 12:12:47;;;;;;;;;;;;;;;;;;5048375;28;1416;-76
2022/09/03 12:15:15;;;;;;;;;;;;;;;;;;5033022;28;1326;-76
2022/09/03 12:17:48;;;;;;;;;;;;;;;;;;5052734;28;1322;-76
2022/09/03 12:20:14;;;;;;;;;;;;;;;;;;5053088;28;1227;-76
2022/09/03 12:22:40;;;;;;;;;;;;;;;;;;5048074;28;1720;-76
2022/09/03 12:25:10;;;;;;;;;;;;;;;;;;5050038;28;1886;-76
2022/09/03 12:27:35;;;;;;;;;;;;;;;;;;5046429;28;1346;-76
2022/09/03 12:30:02;;;;;;;;;;;;;;;;;;5054064;28;1247;-76
2022/09/03 12:32:30;;;;;;;;;;;;;;;;;;5047332;28;1362;-76
2022/09/03 12:34:56;;;;;;;;;;;;;;;;;;5044962;28;1409;-75
2022/09/03 12:37:23;;;;;;;;;;;;;;;;;;5042013;28;1540;-76
2022/09/03 12:39:55;;;;;;;;;;;;;;;;;;5038260;28;1741;-77
2022/09/03 12:42:30;;;;;;;;;;;;;;;;;;5047326;28;1270;-75
2022/09/03 12:45:03;;;;;;;;;;;;;;;;;;5051809;28;1957;-75
2022/09/03 12:47:28;;;;;;;;;;;;;;;;;;5049734;28;1217;-76
2022/09/03 12:49:56;;;;;;;;;;;;;;;;;;5048599;28;1274;-75
2022/09/03 12:52:28;;;;;;;;;;;;;;;;;;5053444;28;1254;-73
2022/09/03 12:54:58;;;;;;;;;;;;;;;;;;5049434;28;1537;-73
2022/09/03 12:57:27;;;;;;;;;;;;;;;;;;5052087;28;1326;-73
2022/09/03 12:59:55;;;;;;;;;;;;;;;;;;5053729;28;1317;-73
2022/09/03 13:02:24;;;;;;;;;;;;;;;;;;5051403;28;1241;-73
2022/09/03 13:04:51;;;;;;;;;;;;;;;;;;5044923;28;1890;-75
2022/09/03 13:07:25;;;;;;;;;;;;;;;;;;5030386;28;1034;-76
2022/09/03 13:09:50;;;;;;;;;;;;;;;;;;5049943;28;1243;-77
2022/09/03 13:12:27;;;;;;;;;;;;;;;;;;5053086;28;1361;-77
2022/09/03 13:14:52;;;;;;;;;;;;;;;;;;5051365;28;1315;-75
2022/09/03 13:17:17;;;;;;;;;;;;;;;;;;5045393;28;1638;-75
2022/09/03 13:19:49;;;;;;;;;;;;;;;;;;5032455;28;1274;-75
2022/09/03 13:22:23;;;;;;;;;;;;;;;;;;5045835;28;1271;-75
2022/09/03 13:24:55;;;;;;;;;;;;;;;;;;5029123;28;1898;-75
2022/09/03 13:27:46;;;;;;;;;;;;;;;;;;5032356;28;1433;-76
2022/09/03 13:30:15;;;;;;;;;;;;;;;;;;5007983;28;1404;-76
2022/09/03 13:32:41;;;;;;;;;;;;;;;;;;5046133;28;1361;-76
2022/09/03 13:35:20;;;;;;;;;;;;;;;;;;5047996;28;1350;-76
2022/09/03 13:37:48;;;;;;;;;;;;;;;;;;5046690;28;1299;-76
2022/09/03 13:40:32;;;;;;;;;;;;;;;;;;5051046;28;1266;-76
2022/09/03 13:43:01;;;;;;;;;;;;;;;;;;5046831;28;1362;-76
2022/09/03 13:45:27;;;;;;;;;;;;;;;;;;5038699;28;1963;-76
2022/09/03 13:50:44;;;;;;;;;;;;;;;;;;5041197;28;1439;-77
2022/09/03 13:53:09;;;;;;;;;;;;;;;;;;5049806;28;1275;-77
2022/09/03 13:55:41;;;;;;;;;;;;;;;;;;5051395;28;1564;-77
2022/09/03 13:58:10;;;;;;;;;;;;;;;;;;5029819;28;1356;-77
2022/09/03 14:00:48;;;;;;;;;;;;;;;;;;5049689;28;1415;-75
2022/09/03 14:03:24;;;;;;;;;;;;;;;;;;5051404;28;1204;-76
2022/09/03 14:05:58;;;;;;;;;;;;;;;;;;5044863;28;1901;-76
2022/09/03 14:08:34;;;;;;;;;;;;;;;;;;5049709;28;1448;-77
2022/09/03 14:11:04;;;;;;;;;;;;;;;;;;5049005;28;1433;-77
2022/09/03 14:13:37;;;;;;;;;;;;;;;;;;5036563;28;1352;-77
2022/09/03 14:16:17;;;;;;;;;;;;;;;;;;5050155;28;1324;-76
2022/09/03 14:18:49;;;;;;;;;;;;;;;;;;5049595;28;1292;-75
2022/09/03 14:21:27;;;;;;;;;;;;;;;;;;5048980;28;1100;-75
2022/09/03 14:24:11;;;;;;;;;;;;;;;;;;5046709;28;1259;-75
2022/09/03 14:26:37;;;;;;;;;;;;;;;;;;5046333;28;1941;-75
2022/09/03 14:29:11;;;;;;;;;;;;;;;;;;5050092;28;1251;-76
2022/09/03 14:31:42;;;;;;;;;;;;;;;;;;5036646;28;1753;-75
2022/09/03 14:34:15;;;;;;;;;;;;;;;;;;5026694;28;1359;-74
2022/09/03 14:36:54;;;;;;;;;;;;;;;;;;5047698;28;1395;-76
2022/09/03 14:39:29;;;;;;;;;;;;;;;;;;5048150;28;1336;-72
2022/09/03 14:41:57;;;;;;;;;;;;;;;;;;5049305;28;1347;-73
2022/09/03 14:44:36;;;;;;;;;;;;;;;;;;5047259;28;1890;-75
2022/09/03 14:47:01;;;;;;;;;;;;;;;;;;5045463;28;1275;-75
2022/09/03 14:49:29;;;;;;;;;;;;;;;;;;5045946;28;1251;-73
2022/09/03 14:52:15;;;;;;;;;;;;;;;;;;5030251;28;1485;-74
2022/09/03 14:55:05;;;;;;;;;;;;;;;;;;5049253;28;1266;-75
2022/09/03 14:57:49;;;;;;;;;;;;;;;;;;5049496;28;1287;-75
2022/09/03 15:00:16;;;;;;;;;;;;;;;;;;5047337;28;1316;-75
2022/09/03 15:02:50;;;;;;;;;;;;;;;;;;5051973;28;1282;-75
2022/09/03 15:05:19;;;;;;;;;;;;;;;;;;5034891;28;2025;-75
2022/09/03 15:08:00;;;;;;;;;;;;;;;;;;5046467;28;1280;-75
2022/09/03 15:10:31;;;;;;;;;;;;;;;;;;5047528;28;1208;-75
2022/09/03 15:12:59;;;;;;;;;;;;;;;;;;5051785;28;1349;-74
2022/09/03 15:15:39;;;;;;;;;;;;;;;;;;5046007;28;1339;-74
2022/09/03 15:18:23;;;;;;;;;;;;;;;;;;5053179;28;1212;-75
2022/09/03 15:20:50;;;;;;;;;;;;;;;;;;5051933;28;1413;-74
2022/09/03 15:23:31;;;;;;;;;;;;;;;;;;5051202;28;1354;-74
2022/09/03 15:26:02;;;;;;;;;;;;;;;;;;5054652;28;1898;-74
2022/09/03 15:28:45;;;;;;;;;;;;;;;;;;5047593;28;1340;-74
2022/09/03 15:31:17;;;;;;;;;;;;;;;;;;5052279;28;1336;-75
2022/09/03 15:33:42;;;;;;;;;;;;;;;;;;5036254;28;1660;-75
2022/09/03 15:36:13;;;;;;;;;;;;;;;;;;5053043;28;1259;-75
2022/09/03 15:38:59;;;;;;;;;;;;;;;;;;5052085;28;1183;-75
2022/09/03 15:41:27;;;;;;;;;;;;;;;;;;5049180;28;1279;-75
2022/09/03 15:44:11;;;;;;;;;;;;;;;;;;5031060;28;1267;-74
2022/09/03 15:46:49;;;;;;;;;;;;;;;;;;5023618;28;1945;-74
2022/09/03 15:49:33;;;;;;;;;;;;;;;;;;5042982;28;1232;-74
2022/09/03 15:52:01;;;;;;;;;;;;;;;;;;5042792;28;1403;-74
2022/09/03 15:54:52;;;;;;;;;;;;;;;;;;5039225;28;1523;-74
2022/09/03 15:57:25;;;;;;;;;;;;;;;;;;5041602;28;1347;-73
2022/09/03 15:59:53;;;;;;;;;;;;;;;;;;5042981;28;1239;-74
2022/09/03 16:02:20;;;;;;;;;;;;;;;;;;5040204;28;1266;-74
2022/09/03 16:04:54;;;;;;;;;;;;;;;;;;5042365;28;1909;-74
2022/09/03 16:07:25;;;;;;;;;;;;;;;;;;5045990;28;1404;-75
2022/09/03 16:10:12;;;;;;;;;;;;;;;;;;5043749;28;1311;-75
2022/09/03 16:12:48;;;;;;;;;;;;;;;;;;5026719;28;1298;-75
2022/09/03 16:15:34;;;;;;;;;;;;;;;;;;5023577;28;1232;-74
2022/09/03 16:18:05;;;;;;;;;;;;;;;;;;5043469;28;1263;-75
2022/09/03 16:20:46;;;;;;;;;;;;;;;;;;5046681;28;1427;-75
2022/09/03 16:23:14;;;;;;;;;;;;;;;;;;5037400;28;1338;-74
2022/09/03 16:25:55;;;;;;;;;;;;;;;;;;5044258;28;1902;-74
2022/09/03 16:28:27;;;;;;;;;;;;;;;;;;5046027;28;1232;-74
2022/09/03 16:30:57;;;;;;;;;;;;;;;;;;5042929;28;1665;-75
2022/09/03 16:33:22;;;;;;;;;;;;;;;;;;5041411;28;1267;-74
2022/09/03 16:36:06;;;;;;;;;;;;;;;;;;5024692;28;1365;-75
2022/09/03 16:38:53;;;;;;;;;;;;;;;;;;5044147;28;1207;-74
2022/09/03 16:41:18;;;;;;;;;;;;;;;;;;5038288;28;1054;-74
2022/09/03 16:43:53;;;;;;;;;;;;;;;;;;5041457;28;1247;-75
2022/09/03 16:46:24;;;;;;;;;;;;;;;;;;5042048;28;1886;-75
2022/09/03 16:49:08;;;;;;;;;;;;;;;;;;5039371;28;1356;-75
2022/09/03 16:51:42;;;;;;;;;;;;;;;;;;5043289;28;1806;-74
2022/09/03 16:54:14;;;;;;;;;;;;;;;;;;5040866;28;1711;-75
2022/09/03 16:57:15;;;;;;;;;;;;;;;;;;5040025;28;1707;-74
2022/09/03 16:59:56;;;;;;;;;;;;;;;;;;4993536;28;1508;-74
2022/09/03 17:02:28;;;;;;;;;;;;;;;;;;5033800;28;1379;-74
2022/09/03 17:05:08;;;;;;;;;;;;;;;;;;5053217;28;1894;-74
2022/09/03 17:07:45;;;;;;;;;;;;;;;;;;5045594;28;1522;-72
2022/09/03 17:10:20;;;;;;;;;;;;;;;;;;5040613;28;1330;-74
2022/09/03 17:12:53;;;;;;;;;;;;;;;;;;5042997;28;1366;-74
2022/09/03 17:15:30;;;;;;;;;;;;;;;;;;5034717;28;1183;-73
2022/09/03 17:17:55;;;;;;;;;;;;;;;;;;5044552;28;1385;-74
2022/09/03 17:20:39;;;;;;;;;;;;;;;;;;5041716;28;1193;-74
2022/09/03 17:23:25;;;;;;;;;;;;;;;;;;5041160;28;1358;-74
2022/09/03 17:25:54;;;;;;;;;;;;;;;;;;5045739;28;1899;-75
2022/09/03 17:28:43;;;;;;;;;;;;;;;;;;5047827;28;1320;-75
2022/09/03 17:31:27;;;;;;;;;;;;;;;;;;5043293;28;1429;-73
2022/09/03 17:34:01;;;;;;;;;;;;;;;;;;5040883;28;1366;-74